createdAt,value
2023-08-29T00:01:33.214Z,8.25
2023-08-29T00:04:49.988Z,7.93
2023-08-29T00:08:07.297Z,7.63
2023-08-29T00:11:25.488Z,8.55
2023-08-29T00:14:42.328Z,13.88
2023-08-29T00:17:58.795Z,9.33
2023-08-29T00:21:15.507Z,8.08
2023-08-29T00:24:32.078Z,7.43
2023-08-29T00:27:48.642Z,10.65
2023-08-29T00:31:05.305Z,10.90
2023-08-29T00:34:21.803Z,10.80
2023-08-29T00:37:38.406Z,8.78
2023-08-29T00:40:55.284Z,15.68
2023-08-29T00:44:12.546Z,14.28
2023-08-29T00:47:29.640Z,10.43
2023-08-29T00:50:47.146Z,12.73
2023-08-29T00:54:04.181Z,14.10
2023-08-29T00:57:21.024Z,11.53
2023-08-29T01:00:39.227Z,13.33
2023-08-29T01:03:56.063Z,11.55
2023-08-29T01:07:14.245Z,16.13
2023-08-29T01:10:36.089Z,14.98
2023-08-29T01:13:58.048Z,13.88
2023-08-29T01:17:20.875Z,15.40
2023-08-29T01:20:41.777Z,13.20
2023-08-29T01:24:02.546Z,19.43
2023-08-29T01:27:21.531Z,17.58
2023-08-29T01:30:39.200Z,18.58
2023-08-29T01:33:56.459Z,18.43
2023-08-29T01:37:13.164Z,21.00
2023-08-29T01:40:30.063Z,28.35
2023-08-29T01:43:46.607Z,21.23
2023-08-29T01:47:03.414Z,26.35
2023-08-29T01:50:20.779Z,24.58
2023-08-29T01:53:39.512Z,20.58
2023-08-29T01:56:57.770Z,21.65
2023-08-29T02:00:18.254Z,24.48
2023-08-29T02:03:34.235Z,19.00
2023-08-29T02:06:51.226Z,18.88
2023-08-29T02:10:08.154Z,20.60
2023-08-29T02:13:24.854Z,23.73
2023-08-29T02:16:41.606Z,16.18
2023-08-29T02:20:00.059Z,25.55
2023-08-29T02:23:16.978Z,18.33
2023-08-29T02:26:33.655Z,16.08
2023-08-29T02:29:50.240Z,11.35
2023-08-29T02:33:07.340Z,13.38
2023-08-29T02:36:25.182Z,7.70
2023-08-29T02:39:43.041Z,6.38
2023-08-29T02:42:59.932Z,5.68
2023-08-29T02:46:18.510Z,5.88
2023-08-29T02:49:37.589Z,5.58
2023-08-29T02:52:54.596Z,5.65
2023-08-29T02:56:11.800Z,7.05
2023-08-29T02:59:28.612Z,5.83
2023-08-29T03:02:46.026Z,6.75
2023-08-29T03:06:07.268Z,9.93
2023-08-29T03:09:26.672Z,12.68
2023-08-29T03:12:44.851Z,9.73
2023-08-29T03:16:11.065Z,11.78
2023-08-29T03:19:29.812Z,9.30
2023-08-29T03:26:29.283Z,14.55
2023-08-29T03:29:50.223Z,8.95
2023-08-29T03:33:07.476Z,8.80
2023-08-29T03:36:26.657Z,8.23
2023-08-29T03:39:44.136Z,7.95
2023-08-29T03:43:01.294Z,8.95
2023-08-29T03:46:19.090Z,8.35
2023-08-29T03:49:37.567Z,7.65
2023-08-29T03:53:32.592Z,9.28
2023-08-29T03:56:50.881Z,8.60
2023-08-29T04:00:11.782Z,13.77
2023-08-29T04:03:32.975Z,7.80
2023-08-29T04:06:51.238Z,8.08
2023-08-29T04:10:08.349Z,7.53
2023-08-29T04:13:26.036Z,8.23
2023-08-29T04:16:51.090Z,6.73
2023-08-29T04:20:10.132Z,7.70
2023-08-29T04:23:27.017Z,7.75
2023-08-29T04:26:44.242Z,6.25
2023-08-29T04:30:01.119Z,6.85
2023-08-29T04:33:18.161Z,7.40
2023-08-29T04:36:35.947Z,6.53
2023-08-29T04:39:52.916Z,7.78
2023-08-29T04:43:10.251Z,6.05
2023-08-29T04:46:29.828Z,7.23
2023-08-29T04:49:46.566Z,8.08
2023-08-29T04:53:22.539Z,6.13
2023-08-29T04:56:51.306Z,6.58
2023-08-29T05:00:07.372Z,5.50
2023-08-29T05:03:28.124Z,5.88
2023-08-29T05:06:46.118Z,4.68
2023-08-29T05:10:03.342Z,4.70
2023-08-29T05:13:20.253Z,4.28
2023-08-29T05:16:38.292Z,4.30
2023-08-29T05:19:56.168Z,5.60
2023-08-29T05:23:15.481Z,4.35
2023-08-29T05:26:34.486Z,4.10
2023-08-29T05:29:51.862Z,6.48
2023-08-29T05:33:09.330Z,5.25
2023-08-29T05:36:26.373Z,4.33
2023-08-29T05:39:43.336Z,6.48
2023-08-29T05:43:00.238Z,4.60
2023-08-29T05:46:17.281Z,5.63
2023-08-29T05:49:34.172Z,4.65
2023-08-29T05:52:50.955Z,5.75
2023-08-29T05:56:07.752Z,5.58
2023-08-29T05:59:27.055Z,5.23
2023-08-29T06:02:44.270Z,6.73
2023-08-29T06:06:03.878Z,6.50
2023-08-29T06:09:21.702Z,4.50
2023-08-29T06:12:38.499Z,4.95
2023-08-29T06:15:55.366Z,5.05
2023-08-29T06:19:12.468Z,4.80
2023-08-29T06:22:29.573Z,3.88
2023-08-29T06:25:47.022Z,4.13
2023-08-29T06:29:03.890Z,4.68
2023-08-29T06:32:20.684Z,3.88
2023-08-29T06:35:38.881Z,3.23
2023-08-29T06:38:57.156Z,4.85
2023-08-29T06:42:24.300Z,3.93
2023-08-29T06:46:03.847Z,3.78
2023-08-29T06:49:35.961Z,4.38
2023-08-29T06:52:53.852Z,2.58
2023-08-29T06:56:10.806Z,3.10
2023-08-29T06:59:27.583Z,7.95
2023-08-29T07:02:44.518Z,2.38
2023-08-29T07:06:08.825Z,4.33
2023-08-29T07:09:27.374Z,8.58
2023-08-29T07:12:44.430Z,4.30
2023-08-29T07:16:01.042Z,4.25
2023-08-29T07:19:18.059Z,2.80
2023-08-29T07:22:34.621Z,3.63
2023-08-29T07:25:53.297Z,3.63
2023-08-29T07:32:23.814Z,2.65
2023-08-29T07:35:40.387Z,3.10
2023-08-29T07:38:57.083Z,3.23
2023-08-29T07:42:14.141Z,3.35
2023-08-29T07:45:30.922Z,2.63
2023-08-29T07:48:47.437Z,2.35
2023-08-29T07:52:04.697Z,2.63
2023-08-29T07:55:22.642Z,2.98
2023-08-29T07:58:39.188Z,3.60
2023-08-29T08:01:56.430Z,4.15
2023-08-29T08:05:15.143Z,3.38
2023-08-29T08:08:31.891Z,2.23
2023-08-29T08:11:48.533Z,3.75
2023-08-29T08:15:06.508Z,3.18
2023-08-29T08:18:23.835Z,3.20
2023-08-29T08:21:40.459Z,2.15
2023-08-29T08:24:57.005Z,2.63
2023-08-29T08:28:15.691Z,3.95
2023-08-29T08:31:32.421Z,4.05
2023-08-29T08:34:49.043Z,2.33
2023-08-29T08:38:07.500Z,7.53
2023-08-29T08:41:26.923Z,10.58
2023-08-29T08:44:44.644Z,4.33
2023-08-29T08:48:02.078Z,3.23
2023-08-29T08:51:23.272Z,3.25
2023-08-29T08:54:40.229Z,2.18
2023-08-29T08:57:57.165Z,4.53
2023-08-29T09:01:13.959Z,5.08
2023-08-29T09:04:30.737Z,1.90
2023-08-29T09:07:49.852Z,7.13
2023-08-29T09:11:10.831Z,2.85
2023-08-29T09:14:27.578Z,3.25
2023-08-29T09:17:44.145Z,6.35
2023-08-29T09:21:02.826Z,3.83
2023-08-29T09:24:22.104Z,2.63
2023-08-29T09:27:41.443Z,4.28
2023-08-29T09:30:58.196Z,3.40
2023-08-29T09:34:14.985Z,1.93
2023-08-29T09:37:31.638Z,2.58
2023-08-29T09:40:58.291Z,4.05
2023-08-29T09:44:21.555Z,2.33
2023-08-29T09:47:41.721Z,22.85
2023-08-29T09:50:59.883Z,4.63
2023-08-29T09:54:19.983Z,2.65
2023-08-29T09:57:39.212Z,4.43
2023-08-29T10:00:58.351Z,3.68
2023-08-29T10:04:25.642Z,3.63
2023-08-29T10:07:46.854Z,5.18
2023-08-29T10:11:04.929Z,2.50
2023-08-29T10:14:22.787Z,5.33
2023-08-29T10:17:41.590Z,3.55
2023-08-29T10:21:01.169Z,3.18
2023-08-29T10:24:20.171Z,5.05
2023-08-29T10:27:36.857Z,3.83
2023-08-29T10:30:56.968Z,3.33
2023-08-29T10:34:14.042Z,5.45
2023-08-29T10:37:31.813Z,2.63
2023-08-29T10:40:48.609Z,4.85
2023-08-29T10:44:45.586Z,2.68
2023-08-29T10:48:04.816Z,2.97
2023-08-29T10:51:24.569Z,11.33
2023-08-29T10:54:41.212Z,5.03
2023-08-29T10:58:00.563Z,2.98
2023-08-29T11:01:32.952Z,2.40
2023-08-29T11:11:45.175Z,2.20
2023-08-29T11:15:02.864Z,3.00
2023-08-29T11:18:37.533Z,6.63
2023-08-29T11:21:56.258Z,3.95
2023-08-29T11:25:15.232Z,3.38
2023-08-29T11:28:31.941Z,5.40
2023-08-29T11:31:52.470Z,3.33
2023-08-29T11:35:09.296Z,4.25
2023-08-29T11:38:25.939Z,9.13
2023-08-29T11:42:13.922Z,7.15
2023-08-29T11:45:28.131Z,6.53
2023-08-29T11:48:23.834Z,6.03
2023-08-29T11:51:41.088Z,4.35
2023-08-29T11:54:59.470Z,4.75
2023-08-29T12:01:31.225Z,6.85
2023-08-29T12:04:52.757Z,3.58
2023-08-29T12:08:09.344Z,4.30
2023-08-29T12:11:26.863Z,5.53
2023-08-29T12:15:03.859Z,3.93
2023-08-29T12:18:31.240Z,5.08
2023-08-29T12:21:47.917Z,4.83
2023-08-29T12:25:05.246Z,5.40
2023-08-29T12:28:21.801Z,6.58
2023-08-29T12:31:38.330Z,5.55
2023-08-29T12:34:57.012Z,6.30
2023-08-29T12:38:14.781Z,5.68
2023-08-29T12:41:31.812Z,5.73
2023-08-29T12:44:48.544Z,8.03
2023-08-29T12:48:05.817Z,5.23
2023-08-29T12:51:22.738Z,6.50
2023-08-29T12:54:40.506Z,5.45
2023-08-29T12:57:57.206Z,5.53
2023-08-29T13:01:15.395Z,6.65
2023-08-29T13:12:43.760Z,6.33
2023-08-29T13:38:51.830Z,6.58
2023-08-29T13:42:10.303Z,10.88
2023-08-29T13:48:42.447Z,7.78
2023-08-29T13:52:01.600Z,4.45
2023-08-29T13:55:18.751Z,6.28
2023-08-29T13:58:35.385Z,6.90
2023-08-29T14:01:51.983Z,8.30
2023-08-29T14:05:08.821Z,8.58
2023-08-29T14:08:25.406Z,10.98
2023-08-29T14:11:41.922Z,7.05
2023-08-29T14:14:58.465Z,8.43
2023-08-29T14:18:15.552Z,6.00
2023-08-29T14:21:32.258Z,6.48
2023-08-29T14:24:49.056Z,12.15
2023-08-29T14:28:08.767Z,7.68
2023-08-29T14:31:29.433Z,9.40
2023-08-29T14:34:46.040Z,9.20
2023-08-29T14:38:03.054Z,7.73
2023-08-29T14:41:20.872Z,6.08
2023-08-29T14:44:40.910Z,6.65
2023-08-29T14:48:00.609Z,7.30
2023-08-29T14:51:17.860Z,6.70
2023-08-29T14:54:34.537Z,7.63
2023-08-29T14:57:51.162Z,9.90
2023-08-29T15:01:09.234Z,7.53
2023-08-29T15:04:28.348Z,10.18
2023-08-29T15:07:45.213Z,9.15
2023-08-29T15:11:04.485Z,5.60
2023-08-29T15:14:21.080Z,10.13
2023-08-29T15:17:37.978Z,13.13
2023-08-29T15:20:55.461Z,8.85
2023-08-29T15:24:12.824Z,7.30
2023-08-29T15:27:29.309Z,7.25
2023-08-29T15:30:46.108Z,8.90
2023-08-29T15:34:02.896Z,11.15
2023-08-29T15:37:19.503Z,11.33
2023-08-29T15:40:36.133Z,8.23
2023-08-29T15:43:53.192Z,8.90
2023-08-29T15:47:10.197Z,6.98
2023-08-29T15:50:26.958Z,10.10
2023-08-29T15:53:43.594Z,9.98
2023-08-29T15:57:01.799Z,8.35
2023-08-29T16:00:21.976Z,7.95
2023-08-29T16:03:38.546Z,7.45
2023-08-29T16:06:55.565Z,14.85
2023-08-29T16:10:15.588Z,10.40
2023-08-29T16:13:32.746Z,9.55
2023-08-29T16:16:52.181Z,8.20
2023-08-29T16:20:10.478Z,9.53
2023-08-29T16:23:27.165Z,11.78
2023-08-29T16:26:43.762Z,12.80
2023-08-29T16:30:04.267Z,11.43
2023-08-29T16:33:20.818Z,9.93
2023-08-29T16:36:37.492Z,12.73
2023-08-29T16:39:54.125Z,11.80
2023-08-29T16:43:11.034Z,10.93
2023-08-29T16:46:27.757Z,11.58
2023-08-29T16:49:44.721Z,9.83
2023-08-29T16:53:06.221Z,11.28
2023-08-29T16:56:22.857Z,12.18
2023-08-29T16:59:56.004Z,10.45
2023-08-29T17:06:47.477Z,11.53
2023-08-29T17:10:05.628Z,11.33
2023-08-29T17:13:22.301Z,12.85
2023-08-29T17:16:42.498Z,12.50
2023-08-29T17:19:59.886Z,12.08
2023-08-29T17:23:16.853Z,12.85
2023-08-29T17:26:33.345Z,15.40
2023-08-29T17:29:50.016Z,14.38
2023-08-29T17:33:06.810Z,10.68
2023-08-29T17:36:23.383Z,16.40
2023-08-29T17:39:40.092Z,12.25
2023-08-29T17:43:03.888Z,13.73
2023-08-29T17:46:19.398Z,13.20
2023-08-29T17:49:36.122Z,12.25
2023-08-29T17:52:52.820Z,12.08
2023-08-29T18:00:21.084Z,14.20
2023-08-29T18:03:37.955Z,13.75
2023-08-29T18:06:54.690Z,12.88
2023-08-29T18:10:48.392Z,11.53
2023-08-29T18:18:56.570Z,9.33
2023-08-29T18:22:14.311Z,17.33
2023-08-29T18:25:31.921Z,16.05
2023-08-29T18:28:48.595Z,18.40
2023-08-29T18:32:05.356Z,19.78
2023-08-29T18:35:22.592Z,16.88
2023-08-29T18:38:39.496Z,22.33
2023-08-29T18:41:56.195Z,23.55
2023-08-29T18:45:14.337Z,18.30
2023-08-29T18:48:31.573Z,20.13
2023-08-29T18:51:48.130Z,21.00
2023-08-29T18:55:05.366Z,18.90
2023-08-29T18:58:22.061Z,16.73
2023-08-29T19:01:39.120Z,17.53
2023-08-29T19:04:55.787Z,16.65
2023-08-29T19:08:13.065Z,14.05
2023-08-29T19:11:29.644Z,15.58
2023-08-29T19:14:48.279Z,15.10
2023-08-29T19:18:05.331Z,20.65
2023-08-29T19:21:27.076Z,15.68
2023-08-29T19:28:29.125Z,16.35
2023-08-29T19:31:52.878Z,20.50
2023-08-29T19:35:52.624Z,14.98
2023-08-29T19:39:21.454Z,18.98
2023-08-29T19:42:43.596Z,16.08
2023-08-29T19:46:10.821Z,16.83
2023-08-29T19:49:45.476Z,19.40
2023-08-29T19:53:05.370Z,17.33
2023-08-29T19:56:25.581Z,18.50
2023-08-29T19:59:42.350Z,15.73
2023-08-29T20:02:59.018Z,16.25
2023-08-29T20:06:18.032Z,17.95
2023-08-29T20:09:40.598Z,14.93
2023-08-29T20:12:57.546Z,20.15
2023-08-29T20:16:16.067Z,17.45
2023-08-29T20:22:48.534Z,15.95
2023-08-29T20:26:09.077Z,11.45
2023-08-29T20:29:26.183Z,19.33
2023-08-29T20:32:42.962Z,10.20
2023-08-29T20:35:59.612Z,11.38
2023-08-29T20:39:16.650Z,10.33
2023-08-29T20:42:33.279Z,12.23
2023-08-29T20:45:51.252Z,10.45
2023-08-29T20:49:08.076Z,12.35
2023-08-29T20:52:26.789Z,11.18
2023-08-29T20:55:45.783Z,12.73
2023-08-29T20:59:05.409Z,11.33
2023-08-29T21:02:35.272Z,12.75
2023-08-29T21:05:59.177Z,12.03
2023-08-29T21:09:16.383Z,11.65
2023-08-29T21:12:35.652Z,10.77
2023-08-29T21:15:54.883Z,11.43
2023-08-29T21:19:11.658Z,10.90
2023-08-29T21:22:28.399Z,14.93
2023-08-29T21:25:46.766Z,12.93
2023-08-29T21:29:03.619Z,11.45
2023-08-29T21:32:20.260Z,18.28
2023-08-29T21:41:55.447Z,12.83
2023-08-29T21:45:13.327Z,16.90
2023-08-29T21:48:32.072Z,11.80
2023-08-29T21:51:48.608Z,11.35
2023-08-29T21:55:05.226Z,13.30
2023-08-29T21:58:21.953Z,12.83
2023-08-29T22:01:38.653Z,12.05
2023-08-29T22:04:57.278Z,12.88
2023-08-29T22:08:14.534Z,11.30
2023-08-29T22:11:31.164Z,11.55
2023-08-29T22:14:47.693Z,15.43
2023-08-29T22:18:05.433Z,17.20
2023-08-29T22:21:21.983Z,23.43
2023-08-29T22:24:38.533Z,24.25
2023-08-29T22:27:55.201Z,25.13
2023-08-29T22:31:13.292Z,23.05
2023-08-29T22:34:29.993Z,29.10
2023-08-29T22:37:46.662Z,29.13
2023-08-29T22:41:24.870Z,28.90
2023-08-29T22:44:30.435Z,31.48
2023-08-29T22:47:47.392Z,42.45
2023-08-29T22:51:03.987Z,29.83
2023-08-29T22:54:20.646Z,35.48
2023-08-29T22:57:37.180Z,33.33
2023-08-29T23:00:54.047Z,30.88
2023-08-29T23:04:11.121Z,32.25
2023-08-29T23:07:29.889Z,30.38
2023-08-29T23:14:01.874Z,32.70
2023-08-29T23:17:20.322Z,36.30
2023-08-29T23:20:37.028Z,29.55
2023-08-29T23:23:55.242Z,29.73
2023-08-29T23:27:12.024Z,30.50
2023-08-29T23:30:29.937Z,28.18
2023-08-29T23:33:56.526Z,34.37
2023-08-29T23:37:13.347Z,24.88
2023-08-29T23:40:29.957Z,24.78
2023-08-29T23:43:46.615Z,20.73
2023-08-29T23:47:03.257Z,20.15
2023-08-29T23:50:20.774Z,21.65
2023-08-29T23:53:37.417Z,20.65
2023-08-29T23:56:54.171Z,20.35
